This is the latest recevied weather packets stored in our database for station/object IK2ILW-4. If no packets are shown the sender has not sent any weather packets the latest 10 day(s).
| Time | Temp. | Humidity | Pressure | Rain* | Wind** | Luminosity | Snow |
|---|---|---|---|---|---|---|---|
| 1777915065 | 12.78° C | 54% | 1017.8 hPa | 0 mm | - | 111 W/m² | - |
| 1777914761 | 12.22° C | 53% | 1018.7 hPa | 0 mm | - | 123 W/m² | - |
| 1777914459 | 12.22° C | 54% | 1018.7 hPa | 0 mm | - | 137 W/m² | - |
| 1777914159 | 11.67° C | 54% | 1018.7 hPa | 0 mm | - | 121 W/m² | - |
| 1777913858 | 12.22° C | 53% | 1018.7 hPa | 0 mm | - | 90 W/m² | - |
| 1777913557 | 12.22° C | 54% | 1018.7 hPa | 0 mm | - | 90 W/m² | - |
| 1777913253 | 12.78° C | 56% | 1018.7 hPa | 0 mm | - | 113 W/m² | - |
| 1777912969 | 12.78° C | 58% | 1018.7 hPa | 0 mm | - | 130 W/m² | - |
| 1777912664 | 13.33° C | 59% | 1018.7 hPa | 0 mm | - | 288 W/m² | - |
| 1777912360 | 12.78° C | 58% | 1018.7 hPa | 0 mm | - | 348 W/m² | - |
| 1777912059 | 12.22° C | 60% | 1017.8 hPa | 0 mm | - | 348 W/m² | - |
| 1777911759 | 12.22° C | 60% | 1017.8 hPa | 0 mm | - | 295 W/m² | - |
| 1777911459 | 12.22° C | 59% | 1017.8 hPa | 0 mm | - | 250 W/m² | - |
| 1777911159 | 11.67° C | 60% | 1017.8 hPa | 0 mm | - | 408 W/m² | - |
| 1777910859 | 11.67° C | 60% | 1017.8 hPa | 0 mm | - | 234 W/m² | - |
| 1777910558 | 11.67° C | 61% | 1017.8 hPa | 0 mm | - | 214 W/m² | - |
| 1777910254 | 11.67° C | 61% | 1017.9 hPa | 0 mm | - | 181 W/m² | - |
| 1777909954 | 11.67° C | 62% | 1017.9 hPa | 0 mm | - | 169 W/m² | - |
| 1777909650 | 11.67° C | 63% | 1017.9 hPa | 0 mm | - | 160 W/m² | - |
| 1777909350 | 11.67° C | 63% | 1018.1 hPa | 0 mm | - | 160 W/m² | - |
| 1777909069 | 11.67° C | 62% | 1018.1 hPa | 0 mm | - | 169 W/m² | - |
| 1777908764 | 11.67° C | 62% | 1018.1 hPa | 0 mm | - | 167 W/m² | - |
| 1777908460 | 12.22° C | 59% | 1018.9 hPa | 0 mm | - | 178 W/m² | - |
| 1777908155 | 12.22° C | 60% | 1018.9 hPa | 0 mm | - | 197 W/m² | - |
| 1777907852 | 12.78° C | 58% | 1018.9 hPa | 0 mm | - | 213 W/m² | - |
* Rain since midnight (hover to see other rain measurements)
** Current wind speed in m/s (hover to see current wind gust speed)